createdAt,value
2023-01-10T00:00:35.075Z,5.50
2023-01-10T00:03:02.717Z,2.92
2023-01-10T00:05:29.299Z,7.63
2023-01-10T00:07:55.949Z,4.68
2023-01-10T00:10:22.387Z,7.57
2023-01-10T00:13:07.646Z,5.53
2023-01-10T00:15:35.866Z,2.47
2023-01-10T00:18:02.937Z,5.40
2023-01-10T00:20:29.551Z,8.15
2023-01-10T00:22:56.029Z,5.90
2023-01-10T00:25:22.542Z,7.45
2023-01-10T00:27:53.803Z,5.35
2023-01-10T00:30:20.429Z,7.07
2023-01-10T00:32:46.911Z,7.43
2023-01-10T00:35:13.333Z,5.60
2023-01-10T00:37:40.364Z,3.80
2023-01-10T00:40:11.348Z,9.15
2023-01-10T00:42:57.445Z,6.20
2023-01-10T00:45:25.101Z,6.50
2023-01-10T00:47:52.273Z,5.32
2023-01-10T00:50:19.034Z,4.22
2023-01-10T00:52:45.639Z,3.47
2023-01-10T00:55:12.173Z,6.43
2023-01-10T00:57:38.668Z,6.95
2023-01-10T01:00:09.145Z,7.68
2023-01-10T01:02:36.366Z,4.03
2023-01-10T01:05:03.203Z,2.55
2023-01-10T01:07:29.658Z,5.68
2023-01-10T01:10:15.016Z,7.95
2023-01-10T01:12:41.559Z,2.95
2023-01-10T01:15:08.567Z,2.72
2023-01-10T01:17:35.073Z,4.38
2023-01-10T01:20:01.640Z,4.72
2023-01-10T01:22:28.130Z,4.07
2023-01-10T01:24:54.582Z,4.97
2023-01-10T01:27:21.118Z,4.85
2023-01-10T01:29:47.590Z,4.90
2023-01-10T01:32:14.050Z,4.60
2023-01-10T01:34:41.063Z,5.65
2023-01-10T01:37:07.622Z,4.10
2023-01-10T01:39:34.083Z,4.63
2023-01-10T01:42:00.615Z,5.90
2023-01-10T01:44:32.693Z,4.78
2023-01-10T01:47:06.118Z,3.67
2023-01-10T01:49:38.264Z,4.55
2023-01-10T01:52:10.383Z,3.08
2023-01-10T01:54:37.584Z,4.93
2023-01-10T01:57:11.023Z,5.95
2023-01-10T01:59:47.477Z,5.25
2023-01-10T02:02:21.212Z,2.05
2023-01-10T02:04:51.500Z,3.90
2023-01-10T02:07:18.594Z,6.38
2023-01-10T02:10:15.624Z,4.10
2023-01-10T02:12:43.656Z,3.17
2023-01-10T02:15:11.564Z,4.30
2023-01-10T02:17:38.776Z,4.20
2023-01-10T02:20:07.319Z,3.03
2023-01-10T02:23:09.023Z,3.25
2023-01-10T02:25:38.285Z,3.20
2023-01-10T02:28:13.868Z,4.45
2023-01-10T02:31:34.819Z,3.55
2023-01-10T02:34:09.245Z,1.50
2023-01-10T02:36:49.980Z,4.47
2023-01-10T02:39:24.149Z,4.50
2023-01-10T02:41:56.270Z,4.03
2023-01-10T02:44:45.868Z,3.63
2023-01-10T02:47:14.214Z,3.67
2023-01-10T02:49:49.324Z,2.13
2023-01-10T02:52:30.501Z,3.15
2023-01-10T02:55:01.524Z,3.65
2023-01-10T02:57:33.761Z,1.55
2023-01-10T03:00:26.119Z,4.28
2023-01-10T03:03:23.638Z,3.08
2023-01-10T03:05:56.177Z,3.67
2023-01-10T03:08:35.824Z,2.95
2023-01-10T03:11:05.807Z,1.10
2023-01-10T03:13:53.864Z,4.32
2023-01-10T03:16:25.969Z,1.65
2023-01-10T03:18:58.343Z,4.32
2023-01-10T03:21:27.810Z,3.78
2023-01-10T03:24:00.237Z,3.70
2023-01-10T03:26:36.671Z,1.95
2023-01-10T03:29:07.859Z,4.63
2023-01-10T03:31:44.747Z,2.50
2023-01-10T03:34:12.628Z,4.40
2023-01-10T03:36:42.798Z,3.53
2023-01-10T03:39:09.236Z,3.78
2023-01-10T03:41:48.001Z,6.15
2023-01-10T03:44:44.402Z,2.90
2023-01-10T03:47:35.056Z,3.60
2023-01-10T03:50:18.297Z,4.70
2023-01-10T03:52:45.375Z,1.85
2023-01-10T03:55:14.034Z,5.05
2023-01-10T03:57:45.557Z,2.53
2023-01-10T04:00:13.901Z,5.25
2023-01-10T04:02:40.353Z,4.60
2023-01-10T04:05:07.574Z,3.63
2023-01-10T04:07:34.518Z,2.45
2023-01-10T04:10:01.093Z,4.38
2023-01-10T04:12:27.644Z,1.85
2023-01-10T04:14:54.168Z,5.95
2023-01-10T04:17:20.682Z,4.28
2023-01-10T04:19:47.200Z,4.15
2023-01-10T04:22:13.740Z,1.80
2023-01-10T04:24:40.651Z,5.45
2023-01-10T04:27:07.221Z,3.35
2023-01-10T04:29:33.645Z,2.83
2023-01-10T04:32:00.985Z,2.78
2023-01-10T04:34:27.468Z,3.85
2023-01-10T04:36:53.991Z,2.25
2023-01-10T04:39:20.416Z,2.33
2023-01-10T04:41:46.895Z,4.82
2023-01-10T04:44:13.494Z,3.50
2023-01-10T04:46:39.909Z,1.58
2023-01-10T04:49:07.315Z,1.98
2023-01-10T04:51:33.783Z,1.85
2023-01-10T04:54:00.226Z,2.80
2023-01-10T04:56:26.872Z,1.83
2023-01-10T04:58:54.226Z,4.10
2023-01-10T05:01:23.294Z,4.18
2023-01-10T05:03:55.112Z,2.47
2023-01-10T05:06:23.248Z,2.90
2023-01-10T05:08:49.817Z,4.25
2023-01-10T05:11:16.336Z,3.00
2023-01-10T05:13:42.817Z,4.85
2023-01-10T05:16:09.330Z,1.77
2023-01-10T05:18:35.792Z,2.72
2023-01-10T05:21:08.014Z,3.22
2023-01-10T05:23:34.930Z,3.17
2023-01-10T05:26:07.637Z,5.95
2023-01-10T05:28:34.339Z,4.20
2023-01-10T05:31:00.829Z,3.60
2023-01-10T05:33:27.703Z,3.15
2023-01-10T05:35:54.271Z,1.65
2023-01-10T05:38:20.721Z,2.38
2023-01-10T05:40:47.269Z,5.03
2023-01-10T05:43:13.795Z,4.65
2023-01-10T05:45:40.449Z,3.33
2023-01-10T05:48:07.043Z,3.78
2023-01-10T05:50:33.514Z,3.92
2023-01-10T05:53:03.758Z,1.23
2023-01-10T05:55:30.322Z,1.80
2023-01-10T05:57:56.914Z,2.47
2023-01-10T06:00:25.071Z,5.05
2023-01-10T06:02:54.917Z,3.03
2023-01-10T06:05:22.169Z,3.05
2023-01-10T06:07:48.713Z,3.15
2023-01-10T06:10:15.667Z,4.75
2023-01-10T06:12:42.351Z,1.33
2023-01-10T06:15:09.825Z,1.92
2023-01-10T06:17:36.467Z,3.60
2023-01-10T06:20:03.137Z,1.65
2023-01-10T06:22:29.683Z,2.65
2023-01-10T06:24:56.363Z,3.25
2023-01-10T06:27:22.872Z,2.42
2023-01-10T06:29:49.327Z,5.70
2023-01-10T06:32:15.809Z,3.78
2023-01-10T06:34:42.249Z,4.30
2023-01-10T06:37:08.780Z,3.80
2023-01-10T06:39:35.279Z,2.05
2023-01-10T06:42:01.757Z,3.30
2023-01-10T06:44:28.240Z,4.57
2023-01-10T06:46:54.660Z,1.27
2023-01-10T06:49:21.112Z,1.15
2023-01-10T06:51:47.564Z,3.13
2023-01-10T06:54:14.004Z,3.28
2023-01-10T06:56:40.539Z,2.92
2023-01-10T06:59:08.492Z,2.78
2023-01-10T07:01:35.206Z,2.60
2023-01-10T07:04:01.839Z,3.90
2023-01-10T07:06:28.364Z,3.13
2023-01-10T07:08:55.469Z,1.85
2023-01-10T07:11:22.103Z,3.28
2023-01-10T07:13:48.582Z,4.05
2023-01-10T07:16:16.488Z,4.13
2023-01-10T07:18:43.542Z,2.88
2023-01-10T07:21:10.915Z,2.05
2023-01-10T07:23:38.135Z,3.65
2023-01-10T07:26:10.147Z,3.17
2023-01-10T07:28:36.953Z,6.10
2023-01-10T07:31:05.718Z,5.25
2023-01-10T07:33:32.338Z,4.35
2023-01-10T07:36:00.387Z,3.05
2023-01-10T07:38:27.020Z,4.35
2023-01-10T07:40:53.477Z,4.22
2023-01-10T07:43:19.987Z,1.92
2023-01-10T07:45:46.912Z,5.15
2023-01-10T07:48:13.389Z,4.93
2023-01-10T07:50:39.946Z,4.90
2023-01-10T07:53:07.875Z,5.75
2023-01-10T07:55:38.894Z,7.25
2023-01-10T07:58:07.929Z,5.60
2023-01-10T08:00:35.389Z,7.07
2023-01-10T08:03:02.294Z,9.77
2023-01-10T08:05:29.113Z,6.00
2023-01-10T08:07:59.886Z,8.77
2023-01-10T08:10:27.380Z,7.15
2023-01-10T08:12:53.876Z,12.80
2023-01-10T08:15:20.564Z,8.43
2023-01-10T08:17:47.118Z,11.05
2023-01-10T08:20:13.762Z,14.02
2023-01-10T08:22:40.214Z,11.88
2023-01-10T08:25:06.911Z,11.10
2023-01-10T08:27:33.398Z,11.05
2023-01-10T08:29:59.905Z,8.68
2023-01-10T08:32:26.437Z,9.23
2023-01-10T08:34:52.889Z,9.32
2023-01-10T08:37:19.536Z,9.73
2023-01-10T08:39:45.977Z,6.82
2023-01-10T08:42:12.546Z,13.65
2023-01-10T08:44:38.975Z,7.25
2023-01-10T08:47:05.472Z,12.32
2023-01-10T08:49:31.922Z,10.02
2023-01-10T08:51:58.429Z,9.13
2023-01-10T08:54:24.959Z,6.32
2023-01-10T08:56:51.441Z,4.35
2023-01-10T08:59:17.886Z,9.40
2023-01-10T09:01:44.510Z,5.10
2023-01-10T09:04:11.749Z,4.45
2023-01-10T09:06:38.211Z,4.68
2023-01-10T09:09:04.970Z,6.15
2023-01-10T09:11:31.579Z,7.60
2023-01-10T09:13:58.121Z,4.25
2023-01-10T09:16:24.665Z,7.10
2023-01-10T09:18:51.148Z,3.75
2023-01-10T09:21:17.623Z,4.63
2023-01-10T09:23:44.359Z,7.03
2023-01-10T09:26:11.077Z,5.75
2023-01-10T09:28:37.582Z,3.80
2023-01-10T09:31:05.171Z,5.22
2023-01-10T09:33:45.237Z,5.53
2023-01-10T09:36:15.399Z,4.68
2023-01-10T09:38:42.082Z,4.97
2023-01-10T09:41:31.546Z,4.65
2023-01-10T09:44:05.575Z,4.82
2023-01-10T09:46:39.574Z,5.03
2023-01-10T09:49:14.961Z,4.10
2023-01-10T09:51:49.023Z,4.22
2023-01-10T09:54:37.536Z,3.42
2023-01-10T09:57:04.289Z,3.72
2023-01-10T09:59:39.806Z,3.08
2023-01-10T10:02:31.277Z,1.80
2023-01-10T10:05:19.285Z,2.10
2023-01-10T10:07:51.832Z,4.25
2023-01-10T10:10:35.046Z,4.80
2023-01-10T10:13:14.018Z,5.07
2023-01-10T10:15:59.839Z,4.90
2023-01-10T10:18:57.527Z,3.90
2023-01-10T10:21:38.777Z,1.67
2023-01-10T10:24:08.099Z,4.43
2023-01-10T10:26:39.123Z,6.00
2023-01-10T10:29:17.920Z,3.28
2023-01-10T10:32:03.188Z,4.75
2023-01-10T10:34:49.814Z,5.68
2023-01-10T10:37:22.581Z,1.77
2023-01-10T10:40:02.510Z,2.17
2023-01-10T10:42:39.594Z,3.75
2023-01-10T10:45:36.572Z,2.50
2023-01-10T10:48:24.587Z,5.20
2023-01-10T10:51:00.431Z,3.03
2023-01-10T10:53:27.172Z,4.22
2023-01-10T10:55:54.086Z,3.15
2023-01-10T10:58:20.678Z,4.20
2023-01-10T11:00:47.996Z,2.88
2023-01-10T11:03:38.518Z,1.38
2023-01-10T11:06:07.042Z,3.03
2023-01-10T11:08:41.230Z,4.20
2023-01-10T11:11:19.438Z,3.97
2023-01-10T11:13:58.078Z,2.95
2023-01-10T11:16:34.088Z,2.83
2023-01-10T11:19:10.908Z,1.00
2023-01-10T11:21:41.191Z,2.70
2023-01-10T11:24:51.056Z,2.28
2023-01-10T11:27:22.884Z,3.25
2023-01-10T11:29:52.290Z,3.30
2023-01-10T11:32:22.884Z,3.83
2023-01-10T11:34:59.073Z,2.08
2023-01-10T11:37:32.622Z,1.75
2023-01-10T11:40:08.157Z,3.63
2023-01-10T11:42:34.714Z,3.83
2023-01-10T11:45:19.425Z,4.28
2023-01-10T11:48:07.792Z,3.30
2023-01-10T11:50:41.756Z,4.65
2023-01-10T11:53:33.906Z,3.88
2023-01-10T11:56:01.441Z,3.63
2023-01-10T11:58:34.453Z,2.80
2023-01-10T12:01:01.403Z,2.33
2023-01-10T12:03:32.704Z,2.88
2023-01-10T12:06:03.111Z,3.13
2023-01-10T12:08:32.434Z,2.05
2023-01-10T12:11:22.305Z,3.85
2023-01-10T12:13:51.363Z,3.10
2023-01-10T12:16:24.309Z,3.55
2023-01-10T12:18:53.280Z,1.75
2023-01-10T12:21:26.644Z,2.60
2023-01-10T12:23:54.964Z,2.30
2023-01-10T12:26:21.772Z,1.60
2023-01-10T12:28:54.263Z,3.40
2023-01-10T12:31:23.095Z,2.80
2023-01-10T12:34:09.156Z,2.38
2023-01-10T12:36:50.235Z,2.97
2023-01-10T12:39:24.628Z,2.58
2023-01-10T12:42:18.150Z,4.17
2023-01-10T12:44:47.548Z,4.60
2023-01-10T12:47:19.573Z,5.35
2023-01-10T12:49:58.377Z,1.58
2023-01-10T12:52:31.130Z,3.00
2023-01-10T12:54:58.185Z,1.63
2023-01-10T12:57:35.973Z,1.25
2023-01-10T13:00:05.732Z,3.08
2023-01-10T13:02:45.302Z,2.90
2023-01-10T13:05:26.700Z,3.78
2023-01-10T13:07:59.719Z,3.13
2023-01-10T13:10:27.308Z,2.50
2023-01-10T13:13:13.375Z,2.70
2023-01-10T13:15:50.965Z,3.65
2023-01-10T13:18:19.694Z,2.88
2023-01-10T13:20:46.453Z,4.18
2023-01-10T13:23:30.391Z,5.07
2023-01-10T13:26:00.625Z,1.48
2023-01-10T13:28:29.222Z,3.78
2023-01-10T13:31:05.832Z,2.40
2023-01-10T13:33:50.993Z,2.05
2023-01-10T13:36:21.798Z,3.03
2023-01-10T13:38:52.838Z,2.53
2023-01-10T13:41:39.348Z,1.63
2023-01-10T13:44:10.100Z,3.17
2023-01-10T13:46:39.545Z,1.35
2023-01-10T13:49:11.897Z,2.45
2023-01-10T13:51:39.848Z,2.53
2023-01-10T13:54:18.382Z,2.33
2023-01-10T13:56:45.540Z,2.85
2023-01-10T13:59:46.167Z,2.00
2023-01-10T14:02:29.227Z,2.05
2023-01-10T14:05:06.315Z,1.60
2023-01-10T14:07:48.595Z,1.92
2023-01-10T14:10:28.083Z,2.38
2023-01-10T14:12:57.131Z,2.40
2023-01-10T14:15:36.811Z,2.45
2023-01-10T14:18:07.380Z,3.75
2023-01-10T14:20:36.443Z,3.22
2023-01-10T14:23:04.950Z,2.92
2023-01-10T14:25:34.242Z,1.77
2023-01-10T14:28:01.805Z,2.42
2023-01-10T14:30:35.268Z,2.42
2023-01-10T14:33:22.293Z,3.47
2023-01-10T14:35:56.199Z,2.45
2023-01-10T14:38:32.543Z,2.83
2023-01-10T14:41:07.020Z,1.98
2023-01-10T14:43:42.893Z,3.33
2023-01-10T14:46:20.727Z,3.70
2023-01-10T14:48:51.042Z,1.65
2023-01-10T14:51:23.211Z,3.38
2023-01-10T14:54:17.647Z,2.15
2023-01-10T14:56:49.219Z,2.45
2023-01-10T14:59:25.291Z,2.60
2023-01-10T15:01:55.508Z,2.28
2023-01-10T15:04:25.757Z,3.63
2023-01-10T15:07:00.091Z,1.95
2023-01-10T15:09:27.719Z,1.43
2023-01-10T15:11:56.255Z,1.60
2023-01-10T15:14:26.233Z,1.88
2023-01-10T15:16:56.491Z,2.38
2023-01-10T15:19:24.406Z,1.48
2023-01-10T15:21:51.176Z,2.60
2023-01-10T15:24:37.900Z,3.38
2023-01-10T15:27:08.706Z,2.38
2023-01-10T15:29:36.873Z,2.08
2023-01-10T15:32:14.847Z,3.00
2023-01-10T15:34:42.312Z,2.00
2023-01-10T15:37:47.405Z,1.65
2023-01-10T15:40:36.732Z,1.73
2023-01-10T15:43:18.536Z,3.88
2023-01-10T15:45:46.705Z,2.50
2023-01-10T15:48:27.028Z,3.10
2023-01-10T15:51:03.782Z,2.55
2023-01-10T15:54:16.100Z,2.83
2023-01-10T15:56:49.558Z,1.58
2023-01-10T15:59:39.775Z,1.85
2023-01-10T16:02:12.534Z,2.78
2023-01-10T16:04:40.395Z,3.47
2023-01-10T16:07:24.613Z,4.45
2023-01-10T16:10:03.896Z,2.00
2023-01-10T16:12:58.643Z,2.20
2023-01-10T16:15:27.475Z,2.30
2023-01-10T16:17:54.729Z,2.33
2023-01-10T16:20:26.317Z,2.75
2023-01-10T16:22:53.923Z,3.25
2023-01-10T16:25:32.236Z,2.53
2023-01-10T16:27:59.191Z,4.20
2023-01-10T16:30:31.209Z,3.78
2023-01-10T16:32:59.777Z,1.60
2023-01-10T16:35:26.966Z,3.30
2023-01-10T16:37:55.763Z,2.53
2023-01-10T16:40:26.519Z,2.63
2023-01-10T16:43:12.325Z,2.05
2023-01-10T16:45:38.960Z,4.18
2023-01-10T16:48:06.897Z,1.52
2023-01-10T16:50:33.472Z,3.25
2023-01-10T16:52:59.954Z,3.33
2023-01-10T16:55:43.775Z,1.85
2023-01-10T16:58:11.597Z,1.73
2023-01-10T17:00:39.354Z,2.63
2023-01-10T17:03:10.211Z,3.47
2023-01-10T17:05:38.211Z,2.53
2023-01-10T17:08:05.519Z,2.42
2023-01-10T17:10:35.528Z,1.88
2023-01-10T17:13:04.501Z,4.28
2023-01-10T17:15:30.951Z,3.92
2023-01-10T17:17:57.385Z,2.97
2023-01-10T17:20:23.875Z,1.60
2023-01-10T17:22:50.395Z,2.67
2023-01-10T17:25:17.669Z,2.58
2023-01-10T17:27:45.017Z,3.15
2023-01-10T17:30:12.485Z,1.58
2023-01-10T17:32:39.507Z,3.70
2023-01-10T17:35:06.721Z,2.47
2023-01-10T17:37:33.408Z,2.63
2023-01-10T17:40:00.076Z,4.55
2023-01-10T17:42:26.731Z,2.40
2023-01-10T17:44:53.257Z,2.03
2023-01-10T17:47:19.726Z,2.47
2023-01-10T17:49:46.254Z,3.20
2023-01-10T17:52:12.935Z,2.45
2023-01-10T17:54:39.435Z,2.95
2023-01-10T17:57:06.004Z,3.42
2023-01-10T17:59:32.469Z,2.88
2023-01-10T18:02:00.218Z,2.25
2023-01-10T18:04:26.840Z,1.73
2023-01-10T18:06:53.417Z,1.60
2023-01-10T18:09:19.893Z,1.67
2023-01-10T18:11:46.368Z,2.80
2023-01-10T18:14:31.582Z,3.78
2023-01-10T18:16:58.145Z,3.05
2023-01-10T18:19:24.727Z,1.55
2023-01-10T18:21:51.185Z,2.42
2023-01-10T18:24:17.764Z,2.40
2023-01-10T18:26:44.296Z,2.55
2023-01-10T18:29:10.876Z,2.20
2023-01-10T18:31:37.386Z,3.88
2023-01-10T18:34:03.854Z,1.73
2023-01-10T18:36:30.348Z,2.53
2023-01-10T18:38:57.236Z,2.00
2023-01-10T18:41:23.681Z,2.80
2023-01-10T18:43:50.198Z,2.08
2023-01-10T18:46:19.774Z,2.03
2023-01-10T18:48:47.036Z,1.75
2023-01-10T18:51:14.708Z,2.83
2023-01-10T18:53:42.421Z,3.05
2023-01-10T18:56:10.243Z,3.13
2023-01-10T18:58:39.954Z,3.15
2023-01-10T19:01:06.684Z,1.65
2023-01-10T19:03:33.785Z,1.67
2023-01-10T19:06:01.633Z,2.17
2023-01-10T19:08:28.579Z,1.70
2023-01-10T19:11:12.434Z,1.70
2023-01-10T19:13:40.810Z,2.00
2023-01-10T19:16:12.934Z,2.40
2023-01-10T19:18:40.031Z,1.40
2023-01-10T19:21:08.795Z,1.40
2023-01-10T19:23:35.212Z,1.73
2023-01-10T19:26:01.671Z,1.95
2023-01-10T19:28:29.781Z,2.72
2023-01-10T19:31:04.165Z,1.92
2023-01-10T19:33:32.820Z,0.68
2023-01-10T19:35:59.345Z,2.03
2023-01-10T19:38:25.848Z,0.90
2023-01-10T19:40:53.041Z,1.10
2023-01-10T19:43:22.059Z,1.52
2023-01-10T19:45:48.624Z,1.45
2023-01-10T19:48:15.413Z,2.03
2023-01-10T19:50:42.183Z,1.52
2023-01-10T19:53:08.625Z,2.20
2023-01-10T19:55:35.561Z,0.80
2023-01-10T19:58:02.371Z,2.28
2023-01-10T20:00:29.421Z,2.22
2023-01-10T20:02:57.655Z,2.25
2023-01-10T20:05:24.738Z,1.50
2023-01-10T20:07:52.038Z,1.40
2023-01-10T20:10:18.902Z,1.15
2023-01-10T20:12:45.456Z,0.98
2023-01-10T20:15:11.911Z,1.70
2023-01-10T20:17:40.304Z,1.15
2023-01-10T20:20:07.082Z,2.17
2023-01-10T20:22:33.548Z,0.60
2023-01-10T20:25:00.799Z,1.45
2023-01-10T20:27:28.695Z,1.40
2023-01-10T20:29:55.303Z,1.67
2023-01-10T20:32:22.184Z,1.27
2023-01-10T20:34:49.721Z,1.30
2023-01-10T20:37:16.399Z,2.60
2023-01-10T20:39:42.970Z,2.03
2023-01-10T20:42:09.467Z,1.20
2023-01-10T20:44:35.934Z,1.85
2023-01-10T20:47:02.822Z,2.00
2023-01-10T20:49:29.362Z,2.00
2023-01-10T20:51:55.832Z,1.73
2023-01-10T20:54:22.362Z,1.48
2023-01-10T20:56:49.163Z,2.03
2023-01-10T20:59:15.619Z,2.38
2023-01-10T21:01:42.117Z,2.95
2023-01-10T21:04:08.673Z,1.73
2023-01-10T21:06:36.219Z,3.17
2023-01-10T21:09:04.543Z,2.95
2023-01-10T21:11:31.057Z,1.83
2023-01-10T21:13:57.525Z,1.75
2023-01-10T21:16:25.248Z,2.42
2023-01-10T21:18:51.862Z,1.30
2023-01-10T21:21:22.482Z,3.70
2023-01-10T21:23:49.060Z,2.08
2023-01-10T21:26:16.020Z,1.25
2023-01-10T21:28:48.329Z,1.50
2023-01-10T21:31:20.464Z,1.98
2023-01-10T21:33:48.999Z,1.83
2023-01-10T21:36:15.478Z,1.48
2023-01-10T21:38:42.007Z,1.58
2023-01-10T21:41:12.620Z,2.00
2023-01-10T21:43:44.170Z,1.85
2023-01-10T21:46:11.255Z,1.33
2023-01-10T21:48:37.688Z,1.00
2023-01-10T21:51:04.203Z,0.95
2023-01-10T21:53:30.700Z,2.13
2023-01-10T21:55:59.447Z,1.10
2023-01-10T21:58:25.903Z,1.35
2023-01-10T22:00:59.193Z,1.00
2023-01-10T22:03:26.041Z,1.67
2023-01-10T22:05:53.409Z,0.93
2023-01-10T22:08:19.919Z,1.80
2023-01-10T22:10:46.363Z,0.65
2023-01-10T22:13:12.847Z,1.27
2023-01-10T22:15:41.095Z,0.85
2023-01-10T22:18:08.495Z,1.00
2023-01-10T22:20:34.927Z,1.08
2023-01-10T22:23:01.555Z,1.05
2023-01-10T22:25:28.029Z,1.70
2023-01-10T22:27:54.493Z,0.95
2023-01-10T22:30:21.052Z,0.93
2023-01-10T22:32:47.527Z,1.38
2023-01-10T22:35:14.678Z,1.17
2023-01-10T22:37:41.481Z,1.30
2023-01-10T22:40:08.855Z,1.00
2023-01-10T22:42:35.375Z,0.95
2023-01-10T22:45:01.851Z,0.70
2023-01-10T22:47:28.424Z,1.30
2023-01-10T22:49:54.910Z,0.80
2023-01-10T22:52:21.400Z,0.55
2023-01-10T22:54:47.849Z,1.17
2023-01-10T22:57:14.398Z,0.93
2023-01-10T22:59:40.881Z,1.30
2023-01-10T23:02:07.352Z,1.27
2023-01-10T23:04:33.801Z,0.95
2023-01-10T23:07:00.329Z,0.85
2023-01-10T23:09:26.882Z,1.05
2023-01-10T23:11:53.403Z,1.00
2023-01-10T23:14:19.842Z,1.25
2023-01-10T23:16:46.426Z,1.02
2023-01-10T23:19:12.948Z,0.90
2023-01-10T23:21:39.648Z,0.45
2023-01-10T23:24:06.580Z,0.95
2023-01-10T23:26:33.223Z,0.93
2023-01-10T23:29:00.301Z,0.70
2023-01-10T23:31:29.488Z,0.40
2023-01-10T23:33:56.429Z,0.55
2023-01-10T23:36:23.826Z,0.98
2023-01-10T23:38:50.747Z,0.68
2023-01-10T23:41:21.002Z,0.57
2023-01-10T23:43:51.479Z,0.70
2023-01-10T23:46:18.226Z,0.80
2023-01-10T23:48:46.155Z,0.90
2023-01-10T23:51:13.716Z,0.50
2023-01-10T23:53:40.803Z,0.90
2023-01-10T23:56:13.545Z,0.88
2023-01-10T23:58:40.918Z,1.15
